^^
Meteo Knjazevac Station Historical Data
Daily Summary for September 5, 2021 Units:  Both    English   Metric
Daily Weekly Monthly Yearly Custom
  High: Low: Average:
Temperature: 50.4 °F /  10.2 °C 49.5 °F /  9.7 °C 50 °F /  10 °C
Dew Point: 44.7 °F /  7.1 °C 43.1 °F /  6.2 °C 43.9 °F /  6.6 °C
Humidity: 81% 77% 80%
Wind Speed: 2mph /  3.2km/h - 1.2mph /  1.9km/h
Wind Gust: 7mph /  11.3km/h - -
Wind- - SW
Pressure: 30.01 in /  1016.1 hPa 29.98 in /  1015.1 hPa -
Precipitation: 0.00 in /  0 mm    
Historical Graphs
 
 
Tabular Data for September 5, 2021
Time Temperature Dew Point Pressure Wind Wind Speed Wind Gust Humidity Rainfall Rate (Hourly) solar Conditions
00:00 50.4 °F /  10.2 °C 43.4 °F /  6.3 °C 30.01in /  1016.1hPa WSW 1mph /  1.6km/h 2mph /  3.2km/h 77% 0.00in /  0mm 0 W/m2
00:10 50.3 °F /  10.2 °C 43.3 °F /  6.3 °C 30.01in /  1016.1hPa West 2mph /  3.2km/h 3mph /  4.8km/h 77% 0.00in /  0mm 0 W/m2
00:20 49.9 °F /  9.9 °C 43.3 °F /  6.3 °C 30.01in /  1016.1hPa West 1mph /  1.6km/h 3mph /  4.8km/h 78% 0.00in /  0mm 0 W/m2
00:30 49.6 °F /  9.8 °C 43.1 °F /  6.2 °C 30.00in /  1015.8hPa Calm   2mph /  3.2km/h 78% 0.00in /  0mm 0 W/m2
00:40 49.6 °F /  9.8 °C 43.1 °F /  6.2 °C 30.00in /  1015.8hPa Calm   2mph /  3.2km/h 78% 0.00in /  0mm 0 W/m2
00:50 49.5 °F /  9.7 °C 43.2 °F /  6.2 °C 30.00in /  1015.8hPa West 2mph /  3.2km/h 5mph /  8km/h 79% 0.00in /  0mm 0 W/m2
01:00 49.5 °F /  9.7 °C 43.2 °F /  6.2 °C 30.00in /  1015.8hPa WNW 2mph /  3.2km/h 5mph /  8km/h 79% 0.00in /  0mm 0 W/m2
01:10 49.6 °F /  9.8 °C 43.4 °F /  6.3 °C 29.99in /  1015.5hPa NW 1mph /  1.6km/h 3mph /  4.8km/h 79% 0.00in /  0mm 0 W/m2
01:20 49.8 °F /  9.9 °C 43.6 °F /  6.4 °C 30.00in /  1015.8hPa NW 1mph /  1.6km/h 2mph /  3.2km/h 79% 0.00in /  0mm 0 W/m2
01:30 49.6 °F /  9.8 °C 43.4 °F /  6.3 °C 29.99in /  1015.5hPa West 1mph /  1.6km/h 3mph /  4.8km/h 79% 0.00in /  0mm 0 W/m2
01:40 49.6 °F /  9.8 °C 43.7 °F /  6.5 °C 29.99in /  1015.5hPa Calm   3mph /  4.8km/h 80% 0.00in /  0mm 0 W/m2
01:50 49.6 °F /  9.8 °C 43.7 °F /  6.5 °C 29.99in /  1015.5hPa West 1mph /  1.6km/h 2mph /  3.2km/h 80% 0.00in /  0mm 0 W/m2
02:00 49.8 °F /  9.9 °C 43.9 °F /  6.6 °C 29.98in /  1015.1hPa North 2mph /  3.2km/h 3mph /  4.8km/h 80% 0.00in /  0mm 0 W/m2
02:10 50.2 °F /  10.1 °C 44.2 °F /  6.8 °C 29.98in /  1015.1hPa NE 2mph /  3.2km/h 3mph /  4.8km/h 80% 0.00in /  0mm 0 W/m2
02:20 50.4 °F /  10.2 °C 44.4 °F /  6.9 °C 29.98in /  1015.1hPa North 1mph /  1.6km/h 5mph /  8km/h 80% 0.00in /  0mm 0 W/m2
02:30 50.2 °F /  10.1 °C 44.2 °F /  6.8 °C 29.98in /  1015.1hPa West 2mph /  3.2km/h 7mph /  11.3km/h 80% 0.00in /  0mm 0 W/m2
02:40 50.2 °F /  10.1 °C 44.2 °F /  6.8 °C 29.98in /  1015.1hPa West 2mph /  3.2km/h 5mph /  8km/h 80% 0.00in /  0mm 0 W/m2
02:50 50.4 °F /  10.2 °C 44.4 °F /  6.9 °C 29.98in /  1015.1hPa Calm   5mph /  8km/h 80% 0.00in /  0mm 0 W/m2
03:00 50.4 °F /  10.2 °C 44.4 °F /  6.9 °C 29.98in /  1015.1hPa Calm   2mph /  3.2km/h 80% 0.00in /  0mm 0 W/m2
03:10 50.3 °F /  10.2 °C 44.7 °F /  7.1 °C 29.98in /  1015.1hPa NNE 2mph /  3.2km/h 4mph /  6.4km/h 81% 0.00in /  0mm 0 W/m2
03:20 50.2 °F /  10.1 °C 44.2 °F /  6.8 °C 29.98in /  1015.1hPa NNE 2mph /  3.2km/h 5mph /  8km/h 80% 0.00in /  0mm 0 W/m2
03:30 50.2 °F /  10.1 °C 44.2 °F /  6.8 °C 29.98in /  1015.1hPa North 1mph /  1.6km/h 3mph /  4.8km/h 80% 0.00in /  0mm 0 W/m2
03:40 50.2 °F /  10.1 °C 44.6 °F /  7 °C 29.98in /  1015.1hPa WNW 2mph /  3.2km/h 3mph /  4.8km/h 81% 0.00in /  0mm 0 W/m2
03:50 50 °F /  10 °C 44.4 °F /  6.9 °C 29.98in /  1015.1hPa West 2mph /  3.2km/h 3mph /  4.8km/h 81% 0.00in /  0mm 0 W/m2
04:00 50 °F /  10 °C 44.4 °F /  6.9 °C 29.98in /  1015.1hPa Calm   3mph /  4.8km/h 81% 0.00in /  0mm 0 W/m2
Knjazevac, Serbia
Compliments of Weather Underground - 2 mb